Terminal Aerodrome Forecast
Issued by NWS

Home | Current Version | Previous Version | Text Only | Print | Product List | Glossary On
Versions: 1 2 3 4 5 6 7 8 9 10 11 12
461
FTUS44 KBMX 121139
TAFTCL
TAF
KTCL 121139Z 1212/1312 VRB03KT P6SM SCT250
     FM121600 32006KT P6SM SCT250
     FM121800 31010G16KT P6SM SCT250
     FM130000 35006KT P6SM SKC=

USA.gov is the U.S. government's official web portal to all federal, state and local government web resources and services.